Lower Island Cove, Canada
Current Conditions -  °F | °C
As of 8:00 PM on Monday 24 Nov 2014 (Local Time) from CYYT Reporting Station
Overcast Overcast  
Wind Chill: 22°   Ceiling: 20000
Heat Index: 28°   Visibility: 15mi
Dew Point: 19°   Wind: 6mph
Humidity: 69%   Direction: 180°S
Pressure: 30.39"   Gusts: NA
Location:  48°N, 53°W
Report Text: CYYT 242300Z 18005KT 15SM OVC200 M02/M07 A3039 RMK CS8 SLP300
Loading
Personal Weather Stations






























Interactive Weather Map New forecast layout! Learn more

10-Day Weather Forecast

Advertisements
Track Severe Weather on mobile